ASN logo
ASN Wikibase Occurrence # 269112
Last updated: 1 December 2021
This information is added by users of ASN. Neither ASN nor the Flight Safety Foundation are responsible for the completeness or correctness of this information. If you feel this information is incomplete or incorrect, you can submit corrected information.

Date:22-OCT-2021
Time:09:30 LT
Type:Silhouette image of generic B733 model; specific model in this crash may look slightly different
Boeing 737-3Y0 (SF)
Owner/operator:Jayawijaya Dirgantara
Registration: PK-JRB
MSN: 23499/1242
Fatalities:Fatalities: 0 / Occupants:
Other fatalities:0
Aircraft damage: None
Location:Jayapura-Sentani Airport (DJJ/WAJJ) -   Indonesia
Phase: Landing
Nature:Cargo
Departure airport:Wamena Airport (WMX/WAVV)
Destination airport:Jayapura-Sentani Airport (DJJ/WAJJ)
Narrative:
Jayawijaya Dirgantara flight JT667, a Boeing 737-3Y0(SF), suffered a runway excursion after landing on runway 30 at Jayapura-Sentani Airport, Indonesia.

Weather reported about the incident time (0030Z):
WAJJ 220100Z 15004KT 9999 SCT012 26/23 Q1013 NOSIG
WAJJ 220030Z 14003KT 8000 -RA SCT012 26/23 Q1013 NOSIG
WAJJ 220000Z 00000KT 7000 -RA SCT011 25/23 Q1013 BECMG NSW

Sources:

https://news.detik.com/berita/d-5777776/pesawat-kargo-jayawijaya-dirgantara-tergelincir-di-bandara-sentani-papua
https://www.antaranews.com/berita/2475153/pesawat-cargo-jayawijaya-dirgantara-tergelincir-di-bandara-sentani

Media:


Images:

Photo of PK-JRB courtesy AirHistory.net


Surabaya - Juanda (WARR / SUB)
12 September 2021; (c) Zico Ramadhan

Revision history:

Date/timeContributorUpdates
22-Oct-2021 17:15 harro Added
22-Oct-2021 17:18 harro Updated [Time, Location, Source, Embed code, Narrative]

Corrections or additions? ... Edit this accident description